createdAt,value
2023-03-10T00:00:26.699Z,920.76
2023-03-10T00:01:26.917Z,920.75
2023-03-10T00:02:27.265Z,920.72
2023-03-10T00:03:28.199Z,920.72
2023-03-10T00:04:28.730Z,920.7
2023-03-10T00:05:29.451Z,920.72
2023-03-10T00:06:30.454Z,920.66
2023-03-10T00:07:30.834Z,920.6
2023-03-10T00:08:31.459Z,920.63
2023-03-10T00:09:32.018Z,920.6
2023-03-10T00:10:32.240Z,920.62
2023-03-10T00:11:33.165Z,920.57
2023-03-10T00:12:33.946Z,920.58
2023-03-10T00:13:34.459Z,920.52
2023-03-10T00:14:35.157Z,920.54
2023-03-10T00:15:36.124Z,920.48
2023-03-10T00:16:36.631Z,920.49
2023-03-10T00:17:36.876Z,920.48
2023-03-10T00:18:37.093Z,920.42
2023-03-10T00:19:37.334Z,920.37
2023-03-10T00:20:37.824Z,920.36
2023-03-10T00:21:38.792Z,920.3
2023-03-10T00:22:38.931Z,920.32
2023-03-10T00:23:39.168Z,920.3
2023-03-10T00:24:39.421Z,920.26
2023-03-10T00:25:40.049Z,920.27
2023-03-10T00:26:40.967Z,920.23
2023-03-10T00:27:41.651Z,920.26
2023-03-10T00:28:41.862Z,920.25
2023-03-10T00:29:42.796Z,920.2
2023-03-10T00:30:43.486Z,920.19
2023-03-10T00:31:43.668Z,920.17
2023-03-10T00:32:44.391Z,920.15
2023-03-10T00:33:45.040Z,920.18
2023-03-10T00:34:45.994Z,920.16
2023-03-10T00:35:46.233Z,920.13
2023-03-10T00:36:46.436Z,920.14
2023-03-10T00:37:46.711Z,920.19
2023-03-10T00:38:47.651Z,920.12
2023-03-10T00:39:47.907Z,920.04
2023-03-10T00:40:48.439Z,920.12
2023-03-10T00:41:49.107Z,920.07
2023-03-10T00:42:49.439Z,919.98
2023-03-10T00:43:50.102Z,920
2023-03-10T00:44:50.335Z,919.99
2023-03-10T00:45:51.164Z,919.95
2023-03-10T00:46:51.395Z,919.89
2023-03-10T00:47:52.339Z,920.02
2023-03-10T00:48:53.339Z,919.96
2023-03-10T00:49:54.259Z,919.99
2023-03-10T00:50:54.744Z,919.99
2023-03-10T00:51:55.390Z,920.01
2023-03-10T00:52:56.469Z,920
2023-03-10T00:53:57.100Z,919.97
2023-03-10T00:54:57.696Z,919.95
2023-03-10T00:55:58.345Z,919.91
2023-03-10T00:56:58.583Z,919.84
2023-03-10T00:57:58.774Z,919.77
2023-03-10T00:58:59.272Z,919.77
2023-03-10T01:00:00.187Z,919.7
2023-03-10T01:01:01.120Z,919.71
2023-03-10T01:02:01.973Z,919.69
2023-03-10T01:03:02.369Z,919.65
2023-03-10T01:04:03.329Z,919.59
2023-03-10T01:05:03.911Z,919.54
2023-03-10T01:06:04.126Z,919.58
2023-03-10T01:07:05.037Z,919.56
2023-03-10T01:08:05.281Z,919.47
2023-03-10T01:09:05.769Z,919.49
2023-03-10T01:10:06.314Z,919.44
2023-03-10T01:11:06.528Z,919.45
2023-03-10T01:12:07.432Z,919.37
2023-03-10T01:13:07.788Z,919.35
2023-03-10T01:14:08.701Z,919.28
2023-03-10T01:15:09.634Z,919.3
2023-03-10T01:16:10.684Z,919.25
2023-03-10T01:17:11.463Z,919.27
2023-03-10T01:18:12.400Z,919.25
2023-03-10T01:19:12.931Z,919.16
2023-03-10T01:20:13.127Z,919.13
2023-03-10T01:21:14.041Z,919.11
2023-03-10T01:22:14.684Z,919.07
2023-03-10T01:23:15.027Z,919.07
2023-03-10T01:24:15.400Z,919.05
2023-03-10T01:25:15.658Z,919.05
2023-03-10T01:26:18.456Z,919.02
2023-03-10T01:27:16.752Z,919.03
2023-03-10T01:28:16.959Z,919.03
2023-03-10T01:29:17.901Z,919
2023-03-10T01:30:18.099Z,919
2023-03-10T01:31:18.373Z,918.92
2023-03-10T01:32:19.064Z,918.92
2023-03-10T01:33:19.388Z,918.9
2023-03-10T01:34:19.895Z,918.89
2023-03-10T01:35:20.432Z,918.84
2023-03-10T01:36:20.809Z,918.76
2023-03-10T01:37:21.753Z,918.74
2023-03-10T01:38:22.754Z,918.7
2023-03-10T01:39:23.053Z,918.65
2023-03-10T01:40:24.013Z,918.65
2023-03-10T01:41:24.957Z,918.61
2023-03-10T01:42:25.896Z,918.61
2023-03-10T01:43:26.500Z,918.56
2023-03-10T01:44:27.163Z,918.53
2023-03-10T01:45:28.086Z,918.52
2023-03-10T01:46:29.013Z,918.54
2023-03-10T01:47:29.374Z,918.52
2023-03-10T01:48:29.624Z,918.48
2023-03-10T01:49:29.864Z,918.48
2023-03-10T01:50:30.516Z,918.44
2023-03-10T01:51:31.452Z,918.45
2023-03-10T01:52:31.690Z,918.47
2023-03-10T01:53:31.999Z,918.43
2023-03-10T01:54:32.452Z,918.4
2023-03-10T01:55:32.724Z,918.36
2023-03-10T01:56:33.357Z,918.34
2023-03-10T01:57:34.270Z,918.31
2023-03-10T01:58:35.187Z,918.28
2023-03-10T01:59:35.815Z,918.28
2023-03-10T02:00:36.342Z,918.21
2023-03-10T02:01:37.131Z,918.24
2023-03-10T02:02:37.933Z,918.17
2023-03-10T02:03:39.027Z,918.21
2023-03-10T02:04:39.519Z,918.19
2023-03-10T02:05:40.006Z,918.22
2023-03-10T02:06:40.216Z,918.23
2023-03-10T02:07:41.452Z,918.24
2023-03-10T02:08:43.838Z,918.26
2023-03-10T02:09:42.640Z,918.21
2023-03-10T02:10:42.887Z,918.21
2023-03-10T02:11:43.100Z,918.2
2023-03-10T02:12:44.041Z,918.16
2023-03-10T02:13:44.497Z,918.14
2023-03-10T02:14:45.151Z,918.12
2023-03-10T02:15:45.641Z,918.09
2023-03-10T02:16:46.125Z,918.08
2023-03-10T02:17:47.171Z,918.09
2023-03-10T02:18:47.369Z,918.06
2023-03-10T02:19:47.955Z,918.06
2023-03-10T02:20:48.696Z,918.02
2023-03-10T02:21:49.200Z,918.05
2023-03-10T02:22:49.396Z,918.01
2023-03-10T02:23:58.898Z,917.98
2023-03-10T02:24:50.313Z,917.95
2023-03-10T02:25:50.547Z,917.97
2023-03-10T02:26:51.040Z,917.86
2023-03-10T02:27:51.242Z,917.89
2023-03-10T02:28:52.177Z,917.82
2023-03-10T02:29:59.107Z,917.78
2023-03-10T02:30:53.306Z,917.73
2023-03-10T02:31:53.613Z,917.64
2023-03-10T02:32:54.526Z,917.6
2023-03-10T02:33:54.923Z,917.56
2023-03-10T02:34:55.850Z,917.51
2023-03-10T02:35:56.201Z,917.49
2023-03-10T02:36:56.428Z,917.49
2023-03-10T02:37:57.347Z,917.48
2023-03-10T02:38:57.895Z,917.45
2023-03-10T02:39:58.119Z,917.43
2023-03-10T02:40:58.405Z,917.42
2023-03-10T02:41:59.378Z,917.39
2023-03-10T02:43:00.365Z,917.37
2023-03-10T02:44:01.145Z,917.32
2023-03-10T02:45:02.071Z,917.32
2023-03-10T02:46:02.327Z,917.25
2023-03-10T02:47:02.998Z,917.25
2023-03-10T02:48:03.931Z,917.21
2023-03-10T02:49:04.931Z,917.25
2023-03-10T02:50:05.197Z,917.22
2023-03-10T02:51:05.699Z,917.28
2023-03-10T02:52:05.927Z,917.26
2023-03-10T02:53:06.830Z,917.24
2023-03-10T02:54:07.214Z,917.21
2023-03-10T02:55:07.460Z,917.18
2023-03-10T02:56:07.731Z,917.23
2023-03-10T02:57:08.234Z,917.23
2023-03-10T02:58:08.880Z,917.23
2023-03-10T02:59:09.529Z,917.23
2023-03-10T03:00:09.765Z,917.19
2023-03-10T03:01:10.769Z,917.17
2023-03-10T03:02:11.567Z,917.18
2023-03-10T03:03:12.243Z,917.15
2023-03-10T03:04:12.730Z,917.15
2023-03-10T03:05:13.674Z,917.17
2023-03-10T03:06:14.587Z,917.19
2023-03-10T03:07:15.541Z,917.19
2023-03-10T03:08:15.731Z,917.18
2023-03-10T03:09:16.364Z,917.13
2023-03-10T03:10:16.719Z,917.11
2023-03-10T03:11:16.961Z,917.08
2023-03-10T03:12:17.617Z,917.11
2023-03-10T03:13:18.560Z,917.11
2023-03-10T03:14:19.698Z,917.09
2023-03-10T03:15:19.684Z,917.07
2023-03-10T03:16:19.960Z,917.1
2023-03-10T03:17:20.102Z,917.08
2023-03-10T03:18:21.024Z,917.08
2023-03-10T03:19:22.047Z,917.1
2023-03-10T03:20:22.473Z,917.12
2023-03-10T03:21:23.406Z,917.15
2023-03-10T03:22:23.626Z,917.15
2023-03-10T03:23:24.113Z,917.16
2023-03-10T03:24:24.540Z,917.16
2023-03-10T03:25:24.804Z,917.19
2023-03-10T03:26:25.346Z,917.19
2023-03-10T03:27:25.989Z,917.16
2023-03-10T03:28:26.506Z,917.24
2023-03-10T03:29:27.458Z,917.27
2023-03-10T03:30:27.702Z,917.28
2023-03-10T03:31:28.049Z,917.29
2023-03-10T03:32:28.257Z,917.33
2023-03-10T03:33:28.394Z,917.38
2023-03-10T03:34:28.908Z,917.32
2023-03-10T03:35:29.875Z,917.39
2023-03-10T03:36:30.596Z,917.4
2023-03-10T03:37:31.292Z,917.51
2023-03-10T03:38:32.223Z,917.52
2023-03-10T03:39:32.551Z,917.48
2023-03-10T03:40:33.091Z,917.51
2023-03-10T03:41:33.490Z,917.5
2023-03-10T03:42:34.428Z,917.54
2023-03-10T03:43:35.044Z,917.51
2023-03-10T03:44:35.448Z,917.58
2023-03-10T03:45:35.678Z,917.54
2023-03-10T03:46:36.128Z,917.54
2023-03-10T03:47:37.164Z,917.58
2023-03-10T03:48:37.397Z,917.59
2023-03-10T03:49:37.976Z,917.6
2023-03-10T03:50:38.922Z,917.59
2023-03-10T03:51:39.564Z,917.52
2023-03-10T03:52:40.376Z,917.51
2023-03-10T03:53:40.608Z,917.46
2023-03-10T03:54:40.944Z,917.32
2023-03-10T03:55:41.892Z,917.35
2023-03-10T03:56:42.155Z,917.32
2023-03-10T03:57:43.087Z,917.41
2023-03-10T03:58:44.048Z,917.55
2023-03-10T03:59:45.032Z,917.84
2023-03-10T04:00:45.981Z,918.22
2023-03-10T04:01:46.431Z,918.35
2023-03-10T04:02:46.883Z,918.3
2023-03-10T04:03:47.432Z,918.42
2023-03-10T04:04:47.846Z,918.33
2023-03-10T04:05:48.048Z,918.28
2023-03-10T04:06:48.950Z,918.27
2023-03-10T04:07:49.598Z,918.29
2023-03-10T04:08:50.528Z,918.36
2023-03-10T04:09:50.774Z,918.31
2023-03-10T04:10:51.418Z,918.33
2023-03-10T04:11:51.670Z,918.23
2023-03-10T04:12:51.905Z,918.2
2023-03-10T04:13:52.840Z,918.19
2023-03-10T04:14:53.111Z,918.14
2023-03-10T04:15:54.229Z,918.13
2023-03-10T04:16:55.016Z,918.12
2023-03-10T04:17:55.694Z,918.07
2023-03-10T04:18:56.225Z,918.04
2023-03-10T04:20:06.468Z,918.01
2023-03-10T04:20:57.643Z,918
2023-03-10T04:21:57.866Z,917.99
2023-03-10T04:22:58.792Z,917.97
2023-03-10T04:23:59.700Z,917.99
2023-03-10T04:25:00.099Z,918.03
2023-03-10T04:26:01.068Z,918.08
2023-03-10T04:27:01.454Z,918.1
2023-03-10T04:28:02.379Z,918.11
2023-03-10T04:29:02.870Z,918.11
2023-03-10T04:30:03.367Z,918.04
2023-03-10T04:31:04.349Z,918.07
2023-03-10T04:32:05.969Z,918.1
2023-03-10T04:33:05.474Z,918.1
2023-03-10T04:34:06.045Z,918.11
2023-03-10T04:35:06.773Z,918.06
2023-03-10T04:36:07.007Z,917.95
2023-03-10T04:37:07.280Z,918.07
2023-03-10T04:38:07.938Z,918.09
2023-03-10T04:39:08.587Z,918.1
2023-03-10T04:40:08.802Z,918.04
2023-03-10T04:41:09.709Z,918.04
2023-03-10T04:42:10.033Z,918.07
2023-03-10T04:43:10.985Z,918.03
2023-03-10T04:44:20.903Z,918.07
2023-03-10T04:45:16.845Z,918.12
2023-03-10T04:46:17.286Z,918.06
2023-03-10T04:47:17.993Z,918.08
2023-03-10T04:48:18.200Z,918.06
2023-03-10T04:49:19.124Z,918.05
2023-03-10T04:50:20.065Z,918.05
2023-03-10T04:51:20.419Z,918.02
2023-03-10T04:52:21.056Z,918.03
2023-03-10T04:53:21.985Z,917.98
2023-03-10T04:54:22.195Z,918.06
2023-03-10T04:55:22.553Z,918.05
2023-03-10T04:56:23.054Z,918.07
2023-03-10T04:57:23.606Z,918.05
2023-03-10T04:58:23.816Z,918.04
2023-03-10T04:59:24.056Z,918.04
2023-03-10T05:00:24.289Z,918.06
2023-03-10T05:01:25.116Z,918.08
2023-03-10T05:02:25.258Z,918.08
2023-03-10T05:03:25.769Z,918.08
2023-03-10T05:04:26.750Z,918.13
2023-03-10T05:05:27.576Z,918.04
2023-03-10T05:06:27.734Z,918.11
2023-03-10T05:07:28.381Z,918.08
2023-03-10T05:08:29.324Z,918.06
2023-03-10T05:09:29.831Z,918.09
2023-03-10T05:10:30.420Z,918.05
2023-03-10T05:11:31.061Z,918.04
2023-03-10T05:12:31.397Z,918.04
2023-03-10T05:13:32.338Z,918.04
2023-03-10T05:14:32.565Z,918.1
2023-03-10T05:15:33.636Z,918.06
2023-03-10T05:16:34.091Z,918.1
2023-03-10T05:17:35.015Z,918.08
2023-03-10T05:18:35.730Z,918.05
2023-03-10T05:19:35.966Z,918.02
2023-03-10T05:20:36.219Z,918.04
2023-03-10T05:21:36.520Z,918.07
2023-03-10T05:22:37.481Z,918
2023-03-10T05:23:37.970Z,918.07
2023-03-10T05:24:38.250Z,918.03
2023-03-10T05:25:38.744Z,918.07
2023-03-10T05:26:39.386Z,918.01
2023-03-10T05:27:40.353Z,918.07
2023-03-10T05:28:40.559Z,918.12
2023-03-10T05:29:41.482Z,918.01
2023-03-10T05:30:41.692Z,917.97
2023-03-10T05:31:42.814Z,918.01
2023-03-10T05:32:42.928Z,917.98
2023-03-10T05:33:43.320Z,917.92
2023-03-10T05:34:43.512Z,918.03
2023-03-10T05:35:44.337Z,917.95
2023-03-10T05:36:44.845Z,917.95
2023-03-10T05:37:45.906Z,917.98
2023-03-10T05:38:46.118Z,917.95
2023-03-10T05:39:46.793Z,917.98
2023-03-10T05:40:47.064Z,918.03
2023-03-10T05:41:47.998Z,917.95
2023-03-10T05:42:48.999Z,917.9
2023-03-10T05:43:49.929Z,917.95
2023-03-10T05:44:50.585Z,917.89
2023-03-10T05:45:51.357Z,917.9
2023-03-10T05:46:52.272Z,917.91
2023-03-10T05:47:52.512Z,917.94
2023-03-10T05:48:52.721Z,917.95
2023-03-10T05:49:52.933Z,917.89
2023-03-10T05:50:53.167Z,917.9
2023-03-10T05:51:53.362Z,917.89
2023-03-10T05:52:54.016Z,917.83
2023-03-10T05:53:54.656Z,917.86
2023-03-10T05:54:55.579Z,917.85
2023-03-10T05:55:56.355Z,917.83
2023-03-10T05:56:57.242Z,917.85
2023-03-10T05:57:57.860Z,917.83
2023-03-10T05:58:58.558Z,917.84
2023-03-10T05:59:59.182Z,917.84
2023-03-10T06:00:59.438Z,917.87
2023-03-10T06:01:59.656Z,917.82
2023-03-10T06:02:59.893Z,917.83
2023-03-10T06:04:00.062Z,917.84
2023-03-10T06:05:00.798Z,917.81
2023-03-10T06:06:01.015Z,917.82
2023-03-10T06:07:01.312Z,917.79
2023-03-10T06:08:01.962Z,917.82
2023-03-10T06:09:02.210Z,917.81
2023-03-10T06:10:02.424Z,917.78
2023-03-10T06:11:03.078Z,917.81
2023-03-10T06:12:04.009Z,917.8
2023-03-10T06:13:04.966Z,917.84
2023-03-10T06:14:05.974Z,917.85
2023-03-10T06:15:06.909Z,917.85
2023-03-10T06:16:07.180Z,917.86
2023-03-10T06:17:07.994Z,917.82
2023-03-10T06:18:08.664Z,917.81
2023-03-10T06:19:09.312Z,917.83
2023-03-10T06:20:09.519Z,917.77
2023-03-10T06:21:09.877Z,917.79
2023-03-10T06:22:10.118Z,917.7
2023-03-10T06:23:10.457Z,917.66
2023-03-10T06:24:11.377Z,917.57
2023-03-10T06:25:11.597Z,917.53
2023-03-10T06:26:11.694Z,917.44
2023-03-10T06:27:12.190Z,917.41
2023-03-10T06:28:12.820Z,917.38
2023-03-10T06:29:13.738Z,917.39
2023-03-10T06:30:14.099Z,917.44
2023-03-10T06:31:14.428Z,917.57
2023-03-10T06:32:14.906Z,917.64
2023-03-10T06:33:15.460Z,917.71
2023-03-10T06:34:16.396Z,917.72
2023-03-10T06:35:16.616Z,917.67
2023-03-10T06:36:16.929Z,917.65
2023-03-10T06:37:17.159Z,917.65
2023-03-10T06:38:18.137Z,917.64
2023-03-10T06:39:18.329Z,917.6
2023-03-10T06:40:18.644Z,917.6
2023-03-10T06:41:18.961Z,917.64
2023-03-10T06:42:19.593Z,917.6
2023-03-10T06:43:20.127Z,917.62
2023-03-10T06:44:20.795Z,917.59
2023-03-10T06:45:21.015Z,917.57
2023-03-10T06:46:21.477Z,917.56
2023-03-10T06:47:22.356Z,917.59
2023-03-10T06:48:23.321Z,917.55
2023-03-10T06:49:24.240Z,917.52
2023-03-10T06:50:24.884Z,917.55
2023-03-10T06:51:25.245Z,917.6
2023-03-10T06:52:25.751Z,917.63
2023-03-10T06:53:26.693Z,917.75
2023-03-10T06:54:26.937Z,917.75
2023-03-10T06:55:27.858Z,917.73
2023-03-10T06:56:28.218Z,917.66
2023-03-10T06:57:29.196Z,917.55
2023-03-10T06:58:29.430Z,917.48
2023-03-10T06:59:30.358Z,917.37
2023-03-10T07:00:30.611Z,917.35
2023-03-10T07:01:31.127Z,917.33
2023-03-10T07:02:32.053Z,917.34
2023-03-10T07:03:32.739Z,917.28
2023-03-10T07:04:32.825Z,917.33
2023-03-10T07:05:33.203Z,917.3
2023-03-10T07:06:33.349Z,917.28
2023-03-10T07:07:34.279Z,917.28
2023-03-10T07:08:34.925Z,917.3
2023-03-10T07:09:35.194Z,917.25
2023-03-10T07:10:35.690Z,917.21
2023-03-10T07:11:36.649Z,917.14
2023-03-10T07:12:37.596Z,917.21
2023-03-10T07:13:38.195Z,917.18
2023-03-10T07:14:39.161Z,917.21
2023-03-10T07:15:39.959Z,917.22
2023-03-10T07:16:39.551Z,917.19
2023-03-10T07:17:40.387Z,917.17
2023-03-10T07:18:41.315Z,917.16
2023-03-10T07:19:41.964Z,917.15
2023-03-10T07:20:42.452Z,917.14
2023-03-10T07:21:42.918Z,917.15
2023-03-10T07:22:43.571Z,917.12
2023-03-10T07:23:43.782Z,917.11
2023-03-10T07:24:44.003Z,917.09
2023-03-10T07:25:44.225Z,917.05
2023-03-10T07:26:44.614Z,917
2023-03-10T07:27:44.801Z,917.03
2023-03-10T07:28:45.214Z,917
2023-03-10T07:29:45.429Z,917.01
2023-03-10T07:30:45.711Z,916.95
2023-03-10T07:31:46.283Z,916.95
2023-03-10T07:32:46.877Z,916.91
2023-03-10T07:33:47.606Z,916.91
2023-03-10T07:34:48.541Z,916.92
2023-03-10T07:35:48.798Z,916.92
2023-03-10T07:36:49.434Z,916.94
2023-03-10T07:37:49.677Z,916.97
2023-03-10T07:38:49.920Z,916.93
2023-03-10T07:39:50.857Z,916.98
2023-03-10T07:40:51.912Z,916.95
2023-03-10T07:41:53.019Z,916.99
2023-03-10T07:42:53.514Z,916.99
2023-03-10T07:43:53.900Z,916.99
2023-03-10T07:44:54.549Z,916.94
2023-03-10T07:45:55.142Z,916.97
2023-03-10T07:46:55.630Z,916.97
2023-03-10T07:47:55.855Z,916.96
2023-03-10T07:48:56.804Z,916.97
2023-03-10T07:49:57.072Z,916.98
2023-03-10T07:50:57.591Z,916.97
2023-03-10T07:51:58.564Z,916.96
2023-03-10T07:52:59.529Z,916.89
2023-03-10T07:53:59.753Z,916.94
2023-03-10T07:55:00.265Z,916.91
2023-03-10T07:56:01.201Z,916.91
2023-03-10T07:57:01.918Z,916.89
2023-03-10T07:58:02.125Z,916.88
2023-03-10T07:59:02.449Z,916.91
2023-03-10T08:00:03.376Z,916.91
2023-03-10T08:01:03.904Z,916.99
2023-03-10T08:02:04.125Z,916.94
2023-03-10T08:03:04.338Z,916.98
2023-03-10T08:04:05.631Z,916.88
2023-03-10T08:05:06.003Z,916.91
2023-03-10T08:06:06.886Z,916.81
2023-03-10T08:07:07.701Z,916.76
2023-03-10T08:08:08.230Z,916.74
2023-03-10T08:09:08.497Z,916.72
2023-03-10T08:10:09.023Z,916.73
2023-03-10T08:11:10.021Z,916.71
2023-03-10T08:12:10.750Z,916.71
2023-03-10T08:13:11.384Z,916.7
2023-03-10T08:14:11.944Z,916.64
2023-03-10T08:15:12.831Z,916.64
2023-03-10T08:16:13.208Z,916.64
2023-03-10T08:17:13.620Z,916.62
2023-03-10T08:18:14.061Z,916.68
2023-03-10T08:19:14.299Z,916.7
2023-03-10T08:20:14.510Z,916.66
2023-03-10T08:21:15.438Z,916.67
2023-03-10T08:22:16.460Z,916.71
2023-03-10T08:23:17.505Z,916.66
2023-03-10T08:24:17.722Z,916.59
2023-03-10T08:25:18.379Z,916.57
2023-03-10T08:26:19.321Z,916.55
2023-03-10T08:27:19.476Z,916.5
2023-03-10T08:28:19.769Z,916.5
2023-03-10T08:29:20.309Z,916.52
2023-03-10T08:30:21.113Z,916.49
2023-03-10T08:31:21.689Z,916.53
2023-03-10T08:32:21.854Z,916.54
2023-03-10T08:33:22.335Z,916.62
2023-03-10T08:34:22.573Z,916.59
2023-03-10T08:35:22.739Z,916.66
2023-03-10T08:36:23.120Z,916.62
2023-03-10T08:37:23.663Z,916.64
2023-03-10T08:38:24.531Z,916.66
2023-03-10T08:39:27.300Z,916.66
2023-03-10T08:40:25.178Z,916.67
2023-03-10T08:41:25.647Z,916.69
2023-03-10T08:42:26.352Z,916.67
2023-03-10T08:43:26.887Z,916.71
2023-03-10T08:44:27.208Z,916.72
2023-03-10T08:45:28.120Z,916.75
2023-03-10T08:46:28.534Z,916.77
2023-03-10T08:47:32.197Z,916.76
2023-03-10T08:48:30.408Z,916.78
2023-03-10T08:49:31.126Z,916.81
2023-03-10T08:50:32.223Z,916.79
2023-03-10T08:51:32.938Z,916.85
2023-03-10T08:52:33.206Z,916.87
2023-03-10T08:53:33.958Z,916.9
2023-03-10T08:54:35.012Z,916.89
2023-03-10T08:55:35.244Z,916.96
2023-03-10T08:56:36.229Z,917.04
2023-03-10T08:57:37.044Z,916.96
2023-03-10T08:58:37.319Z,917.01
2023-03-10T08:59:37.652Z,916.97
2023-03-10T09:00:38.630Z,917.09
2023-03-10T09:01:39.608Z,917.07
2023-03-10T09:02:40.671Z,917.09
2023-03-10T09:03:41.318Z,916.97
2023-03-10T09:04:41.378Z,916.97
2023-03-10T09:05:41.642Z,916.99
2023-03-10T09:06:41.916Z,917.08
2023-03-10T09:07:42.403Z,917.02
2023-03-10T09:08:42.399Z,916.91
2023-03-10T09:09:42.923Z,916.91
2023-03-10T09:10:43.135Z,916.98
2023-03-10T09:11:43.681Z,916.84
2023-03-10T09:12:44.298Z,916.81
2023-03-10T09:13:45.305Z,916.78
2023-03-10T09:14:46.190Z,916.78
2023-03-10T09:15:46.450Z,916.74
2023-03-10T09:16:46.594Z,916.68
2023-03-10T09:17:47.586Z,916.62
2023-03-10T09:18:47.883Z,916.62
2023-03-10T09:19:48.151Z,916.62
2023-03-10T09:20:49.143Z,916.64
2023-03-10T09:21:49.407Z,916.67
2023-03-10T09:22:49.754Z,916.69
2023-03-10T09:23:50.742Z,916.69
2023-03-10T09:24:51.236Z,916.64
2023-03-10T09:25:51.779Z,916.7
2023-03-10T09:26:52.300Z,916.65
2023-03-10T09:27:53.130Z,916.7
2023-03-10T09:28:56.540Z,916.75
2023-03-10T09:29:54.490Z,916.76
2023-03-10T09:30:55.531Z,916.85
2023-03-10T09:31:56.308Z,916.81
2023-03-10T09:32:57.342Z,916.81
2023-03-10T09:33:58.082Z,916.8
2023-03-10T09:34:58.316Z,916.74
2023-03-10T09:36:06.235Z,916.76
2023-03-10T09:36:59.275Z,916.77
2023-03-10T09:38:00.324Z,916.76
2023-03-10T09:39:00.880Z,916.74
2023-03-10T09:40:01.868Z,916.8
2023-03-10T09:41:02.573Z,916.76
2023-03-10T09:42:03.562Z,916.71
2023-03-10T09:43:04.596Z,916.77
2023-03-10T09:44:04.814Z,916.78
2023-03-10T09:45:05.111Z,916.75
2023-03-10T09:46:06.130Z,916.8
2023-03-10T09:47:07.216Z,916.74
2023-03-10T09:48:07.155Z,916.77
2023-03-10T09:49:07.905Z,916.8
2023-03-10T09:50:08.121Z,916.86
2023-03-10T09:51:08.366Z,916.89
2023-03-10T09:52:09.334Z,916.94
2023-03-10T09:53:10.129Z,916.97
2023-03-10T09:54:10.430Z,916.97
2023-03-10T09:55:13.134Z,917.05
2023-03-10T09:56:11.870Z,917.05
2023-03-10T09:57:12.656Z,917.13
2023-03-10T09:58:13.624Z,917.16
2023-03-10T09:59:14.723Z,917.2
2023-03-10T10:00:14.346Z,917.22
2023-03-10T10:01:15.287Z,917.25
2023-03-10T10:02:15.806Z,917.32
2023-03-10T10:03:16.115Z,917.39
2023-03-10T10:04:16.698Z,917.39
2023-03-10T10:05:17.535Z,917.49
2023-03-10T10:06:18.537Z,917.45
2023-03-10T10:07:19.569Z,917.56
2023-03-10T10:08:20.265Z,917.65
2023-03-10T10:09:20.593Z,917.7
2023-03-10T10:10:20.844Z,917.72
2023-03-10T10:11:21.075Z,917.77
2023-03-10T10:12:21.628Z,917.87
2023-03-10T10:13:22.124Z,917.84
2023-03-10T10:14:29.136Z,917.98
2023-03-10T10:15:22.501Z,917.86
2023-03-10T10:16:33.775Z,917.98
2023-03-10T10:17:23.214Z,918.16
2023-03-10T10:18:27.111Z,918.22
2023-03-10T10:19:27.725Z,917.88
2023-03-10T10:20:28.604Z,918.2
2023-03-10T10:21:36.868Z,917.97
2023-03-10T10:22:29.252Z,918.14
2023-03-10T10:23:29.488Z,918.15
2023-03-10T10:24:30.083Z,918.16
2023-03-10T10:25:31.029Z,918.13
2023-03-10T10:26:32.076Z,918
2023-03-10T10:27:33.058Z,917.96
2023-03-10T10:28:33.638Z,917.93
2023-03-10T10:29:34.354Z,917.92
2023-03-10T10:30:34.666Z,918.01
2023-03-10T10:31:36.227Z,918.04
2023-03-10T10:32:36.068Z,918.13
2023-03-10T10:33:37.066Z,918.15
2023-03-10T10:34:37.228Z,918.22
2023-03-10T10:35:37.539Z,918.1
2023-03-10T10:36:37.664Z,918.1
2023-03-10T10:37:41.340Z,918.05
2023-03-10T10:38:39.478Z,918.09
2023-03-10T10:39:40.413Z,918.01
2023-03-10T10:40:41.338Z,918.05
2023-03-10T10:41:41.572Z,917.96
2023-03-10T10:42:41.794Z,917.94
2023-03-10T10:43:42.089Z,917.88
2023-03-10T10:44:43.045Z,917.93
2023-03-10T10:45:43.821Z,917.93
2023-03-10T10:46:43.992Z,917.93
2023-03-10T10:47:44.970Z,917.83
2023-03-10T10:48:45.130Z,917.78
2023-03-10T10:49:45.369Z,917.83
2023-03-10T10:50:45.632Z,917.75
2023-03-10T10:51:46.569Z,917.94
2023-03-10T10:52:47.280Z,917.98
2023-03-10T10:53:47.586Z,917.9
2023-03-10T10:54:48.295Z,917.82
2023-03-10T10:55:49.024Z,917.81
2023-03-10T10:56:49.544Z,917.88
2023-03-10T10:57:50.525Z,917.86
2023-03-10T10:58:50.933Z,917.91
2023-03-10T10:59:51.857Z,917.96
2023-03-10T11:00:52.204Z,917.92
2023-03-10T11:01:52.840Z,917.92
2023-03-10T11:02:53.816Z,917.94
2023-03-10T11:03:54.798Z,917.91
2023-03-10T11:04:55.006Z,918.02
2023-03-10T11:05:56.486Z,917.92
2023-03-10T11:06:55.819Z,917.87
2023-03-10T11:07:56.042Z,917.87
2023-03-10T11:08:56.835Z,917.87
2023-03-10T11:09:57.877Z,917.83
2023-03-10T11:10:58.109Z,917.8
2023-03-10T11:11:58.457Z,917.77
2023-03-10T11:12:58.706Z,917.8
2023-03-10T11:13:59.574Z,917.78
2023-03-10T11:14:59.933Z,917.82
2023-03-10T11:16:00.935Z,917.77
2023-03-10T11:17:01.544Z,917.83
2023-03-10T11:18:01.908Z,917.84
2023-03-10T11:19:02.323Z,917.81
2023-03-10T11:20:03.298Z,917.8
2023-03-10T11:21:04.019Z,917.85
2023-03-10T11:22:04.951Z,917.82
2023-03-10T11:23:05.872Z,917.75
2023-03-10T11:24:06.178Z,917.77
2023-03-10T11:25:07.208Z,917.72
2023-03-10T11:26:08.148Z,917.71
2023-03-10T11:27:08.417Z,917.74
2023-03-10T11:28:08.659Z,917.78
2023-03-10T11:29:09.368Z,917.74
2023-03-10T11:30:10.233Z,917.85
2023-03-10T11:31:10.562Z,917.81
2023-03-10T11:32:11.360Z,917.83
2023-03-10T11:33:11.971Z,917.87
2023-03-10T11:34:12.498Z,917.86
2023-03-10T11:35:13.445Z,917.84
2023-03-10T11:36:13.772Z,917.84
2023-03-10T11:37:14.182Z,917.8
2023-03-10T11:38:14.414Z,917.83
2023-03-10T11:39:14.886Z,917.76
2023-03-10T11:40:15.133Z,917.71
2023-03-10T11:41:15.357Z,917.78
2023-03-10T11:42:16.027Z,917.88
2023-03-10T11:43:17.079Z,917.89
2023-03-10T11:44:18.131Z,917.83
2023-03-10T11:45:18.373Z,917.82
2023-03-10T11:46:19.038Z,917.82
2023-03-10T11:47:19.985Z,917.87
2023-03-10T11:48:20.224Z,917.74
2023-03-10T11:49:20.580Z,917.73
2023-03-10T11:50:21.794Z,917.71
2023-03-10T11:51:22.297Z,917.64
2023-03-10T11:52:22.959Z,917.58
2023-03-10T11:53:24.012Z,917.58
2023-03-10T11:54:26.684Z,917.53
2023-03-10T11:55:24.905Z,917.53
2023-03-10T11:56:25.145Z,917.55
2023-03-10T11:57:25.685Z,917.43
2023-03-10T11:58:26.670Z,917.42
2023-03-10T11:59:27.046Z,917.44
2023-03-10T12:00:27.561Z,917.42
2023-03-10T12:01:27.815Z,917.43
2023-03-10T12:02:28.094Z,917.41
2023-03-10T12:03:28.413Z,917.42
2023-03-10T12:04:29.069Z,917.43
2023-03-10T12:05:30.011Z,917.45
2023-03-10T12:06:30.611Z,917.42
2023-03-10T12:07:31.173Z,917.39
2023-03-10T12:08:31.421Z,917.36
2023-03-10T12:09:32.510Z,917.35
2023-03-10T12:10:32.782Z,917.37
2023-03-10T12:11:33.729Z,917.37
2023-03-10T12:12:34.676Z,917.35
2023-03-10T12:13:34.905Z,917.32
2023-03-10T12:14:35.893Z,917.34
2023-03-10T12:15:36.132Z,917.3
2023-03-10T12:16:36.372Z,917.35
2023-03-10T12:17:36.679Z,917.39
2023-03-10T12:18:37.627Z,917.35
2023-03-10T12:19:38.378Z,917.34
2023-03-10T12:20:38.599Z,917.34
2023-03-10T12:21:39.143Z,917.31
2023-03-10T12:22:40.061Z,917.35
2023-03-10T12:23:40.738Z,917.38
2023-03-10T12:24:41.092Z,917.39
2023-03-10T12:25:42.043Z,917.42
2023-03-10T12:26:42.293Z,917.42
2023-03-10T12:27:42.811Z,917.38
2023-03-10T12:28:43.759Z,917.36
2023-03-10T12:29:44.168Z,917.41
2023-03-10T12:30:44.847Z,917.35
2023-03-10T12:31:45.661Z,917.39
2023-03-10T12:32:46.439Z,917.35
2023-03-10T12:33:46.529Z,917.31
2023-03-10T12:34:46.762Z,917.3
2023-03-10T12:35:47.484Z,917.28
2023-03-10T12:36:48.480Z,917.2
2023-03-10T12:37:48.769Z,917.14
2023-03-10T12:38:49.685Z,917.06